Terminal Aerodrome Forecast
Issued by NWS Sioux Falls, SD

Home | Current Version | Previous Version | Text Only | Print | Product List | Glossary On
Versions: 1 2 3 4 5 6 7 8 9 10 11 12 13
000
FTUS43 KFSD 222339
TAFHON
TAF
KHON 222339Z 2300/2324 16010KT P6SM BKN070 BKN250
      TEMPO 2307/2309 -SHRA
     FM230900 15010KT P6SM -SHRA BKN050
     FM231700 14015G20KT P6SM SCT025 BKN040=

USA.gov is the U.S. government's official web portal to all federal, state and local government web resources and services.